Latest Coastal Weather Observations for Coconut Island

IDQ60701

Issued at 5:51 pm EST Wednesday 23 August 2017 (issued every 10 minutes, with the page automatically refreshed every 10 minutes)

About coastal observations | Map of coastal stations | Coastal observations for QLD | Marine services | Other Formats
Station Details ID: 027054 Name: COCONUT ISLAND Lat: -10.05 Lon: 143.07 Height: 3.5 m
Data from the previous 72 hours. | See also: Recent months at Coconut Island
Date/Time
EST
Temp
°C
Wind Pressure Rain since
9am
mm
Weather Cloud Vis
km
Sea
Height
m
Swell
Dir  Spd
kts
Gust
kts
hPa Trend Height
m
Period
s
Dir
23/05:30pm 26.4 SSE 2 5 1012.5 - 0.0 - - - - - - -
23/05:00pm 27.4 SSE 2 6 1012.3 - 0.0 - - - - - - -
23/04:30pm 27.5 SSE 3 7 1012.2 - 0.0 - - - - - - -
23/04:00pm 28.1 SE 3 9 1012.3 - 0.0 - - - - - - -
23/03:30pm 29.0 SE 3 8 1012.3 - 0.0 - - - - - - -
23/03:00pm 29.7 SE 2 5 1012.4 - 0.0 - - - - - - -
23/02:30pm 30.6 SE 3 9 1012.7 - 0.0 - - - - - - -
23/02:00pm 30.9 SE 2 7 1013.0 - 0.0 - - - - - - -
23/01:30pm 30.6 SE 3 6 1013.4 - 0.0 - - - - - - -
23/01:00pm 30.6 SE 3 9 1013.9 - 0.0 - - - - - - -
23/12:30pm 30.5 SE 3 6 1014.2 - 0.0 - - - - - - -
23/12:00pm 30.4 SE 3 8 1014.8 - 0.0 - - - - - - -
23/11:30am 30.5 SE 4 9 1015.2 - 0.0 - - - - - - -
23/11:00am 29.9 SE 3 8 1015.3 - 0.0 - - - - - - -
23/10:30am 29.1 SE 5 10 1015.5 - 0.0 - - - - - - -
23/10:00am 29.1 SE 4 10 1015.6 - 0.0 - - - - - - -
23/09:30am 28.4 SE 3 8 1015.6 - 0.0 - - - - - - -
23/09:00am 27.6 SE 4 12 1015.3 - 0.0 - - - - - - -
23/08:30am 26.8 SE 3 7 1015.1 - 0.0 - - - - - - -
23/08:00am 25.7 SSE 3 7 1014.9 - 0.0 - - - - - - -
23/07:30am 24.8 SSE 2 5 1014.8 - 0.0 - - - - - - -
23/07:00am 24.4 SE 3 7 1014.5 - 0.0 - - - - - - -
23/06:30am 24.3 SE 3 8 1014.3 - 0.0 - - - - - - -
23/06:00am 24.4 SE 3 11 1014.0 - 0.0 - - - - - - -
23/05:30am 24.4 SE 2 5 1013.9 - 0.0 - - - - - - -
23/05:00am 24.3 SE 2 8 1013.7 - 0.0 - - - - - - -
23/04:30am 24.3 SE 2 4 1013.5 - 0.0 - - - - - - -
23/04:00am 24.3 SE 2 4 1013.4 - 0.0 - - - - - - -
23/03:30am 24.4 SE 2 6 1013.3 - 0.0 - - - - - - -
23/03:00am 24.1 SSE 3 4 1013.1 - 0.0 - - - - - - -
23/02:30am 24.2 SSE 3 9 1013.3 - 0.0 - - - - - - -
23/02:00am 24.3 SSE 3 6 1013.5 - 0.0 - - - - - - -
23/01:30am 24.3 SE 3 7 1014.0 - 0.0 - - - - - - -
23/01:00am 24.4 SSE 3 6 1014.4 - 0.0 - - - - - - -
23/12:30am 24.5 SSE 3 6 1014.7 - 0.0 - - - - - - -
23/12:00am 24.8 SSE 3 7 1014.9 - 0.0 - - - - - - -
 
Date/Time
EST
Temp
°C
Wind Pressure Rain since
9am
mm
Weather Cloud Vis
km
Sea
Height
m
Swell
Dir  Spd
kts
Gust
kts
hPa Trend Height
m
Period
s
Dir
22/11:30pm 24.7 SSE 2 5 1015.2 - 0.0 - - - - - - -
22/11:00pm 24.4 SSE 2 4 1015.2 - 0.0 - - - - - - -
22/10:30pm 24.3 SSE 2 3 1015.3 - 0.0 - - - - - - -
22/10:00pm 24.6 SE 3 7 1015.3 - 0.0 - - - - - - -
22/09:30pm 24.8 SSE 3 8 1015.2 - 0.0 - - - - - - -
22/09:00pm 24.7 SE 3 7 1014.9 - 0.0 - - - - - - -
22/08:30pm 24.5 SSE 3 7 1014.6 - 0.0 - - - - - - -
22/08:00pm 24.2 SSE 3 5 1014.3 - 0.0 - - - - - - -
22/07:30pm 24.4 SSE 3 6 1013.9 - 0.0 - - - - - - -
22/07:00pm 24.6 SSE 3 6 1013.5 - 0.0 - - - - - - -
22/06:30pm 24.7 SE 2 5 1013.3 - 0.0 - - - - - - -
22/06:00pm 25.2 SE 2 5 1013.1 - 0.0 - - - - - - -
22/05:30pm 26.1 SE 2 6 1012.9 - 0.0 - - - - - - -
22/05:00pm 26.5 SE 3 7 1012.9 - 0.0 - - - - - - -
22/04:30pm 27.4 SE 3 7 1012.9 - 0.0 - - - - - - -
22/04:00pm 28.6 SE 3 7 1012.8 - 0.0 - - - - - - -
22/03:30pm 28.4 SE 3 6 1012.7 - 0.0 - - - - - - -
22/03:00pm 28.9 SE 3 7 1012.5 - 0.0 - - - - - - -
22/02:30pm 29.5 SE 2 5 1012.7 - 0.0 - - - - - - -
22/02:00pm 29.5 SE 3 8 1012.9 - 0.0 - - - - - - -
22/01:30pm 30.0 SE 3 7 1013.2 - 0.0 - - - - - - -
22/01:00pm 29.6 SE 2 7 1013.4 - 0.0 - - - - - - -
22/12:30pm 30.1 SE 2 6 1013.6 - 0.0 - - - - - - -
22/12:00pm 29.8 SE 3 7 1013.8 - 0.0 - - - - - - -
22/11:30am 29.7 SE 3 6 1014.0 - 0.0 - - - - - - -
22/11:00am 29.2 SE 2 5 1014.4 - 0.0 - - - - - - -
22/10:30am 28.8 SE 2 8 1014.8 - 0.0 - - - - - - -
22/10:00am 28.4 SE 3 7 1014.9 - 0.0 - - - - - - -
22/09:30am 26.9 SE 3 6 1014.9 - 0.0 - - - - - - -
22/09:00am 24.7 SE 2 5 1014.9 - 0.6 - - - - - - -
22/08:30am 24.7 SE 3 6 1014.7 - 0.6 - - - - - - -
22/08:00am 24.2 SE 2 6 1014.7 - 0.6 - - - - - - -
22/07:30am 23.3 SE 3 6 1014.4 - 0.6 - - - - - - -
22/07:00am 23.5 ESE 5 14 1014.3 - 0.2 - - - - - - -
22/06:30am 23.8 SE 2 7 1013.9 - 0.0 - - - - - - -
22/06:00am 24.0 SE 3 9 1013.5 - 0.0 - - - - - - -
22/05:30am 23.8 SE 4 8 1013.2 - 0.0 - - - - - - -
22/05:00am 24.0 ESE 5 11 1013.0 - 0.0 - - - - - - -
22/04:30am 23.8 ESE 5 12 1013.1 - 0.0 - - - - - - -
22/04:00am 23.8 SE 3 11 1013.2 - 0.0 - - - - - - -
22/03:30am 24.2 SE 2 9 1013.2 - 0.0 - - - - - - -
22/03:00am 24.2 SE 3 7 1013.2 - 0.0 - - - - - - -
22/02:30am 24.3 SE 4 10 1013.4 - 0.0 - - - - - - -
22/02:00am 24.4 SE 3 11 1013.6 - 0.0 - - - - - - -
22/01:30am 24.4 SE 3 6 1013.7 - 0.0 - - - - - - -
22/01:00am 24.4 SE 3 8 1013.9 - 0.0 - - - - - - -
22/12:30am 24.5 SE 3 10 1014.1 - 0.0 - - - - - - -
22/12:00am 24.6 SE 4 9 1014.4 - 0.0 - - - - - - -
 
Date/Time
EST
Temp
°C
Wind Pressure Rain since
9am
mm
Weather Cloud Vis
km
Sea
Height
m
Swell
Dir  Spd
kts
Gust
kts
hPa Trend Height
m
Period
s
Dir
21/11:30pm 24.6 SE 4 10 1014.6 - 0.0 - - - - - - -
21/11:00pm 24.7 SSE 3 8 1014.7 - 0.0 - - - - - - -
21/10:30pm 24.7 SE 4 11 1014.7 - 0.0 - - - - - - -
21/10:00pm 24.6 SE 5 10 1014.6 - 0.0 - - - - - - -
21/09:30pm 24.5 SE 4 10 1014.5 - 0.0 - - - - - - -
21/09:00pm 24.8 SSE 4 9 1014.5 - 0.0 - - - - - - -
21/08:30pm 24.7 SE 3 9 1014.1 - 0.0 - - - - - - -
21/08:00pm 24.7 SE 4 9 1013.8 - 0.0 - - - - - - -
21/07:30pm 24.6 SSE 3 6 1013.3 - 0.0 - - - - - - -
21/07:00pm 24.7 SSE 3 7 1012.9 - 0.0 - - - - - - -
21/06:30pm 25.0 SSE 4 10 1012.4 - 0.0 - - - - - - -
21/06:00pm 25.4 SSE 3 6 1012.1 - 0.0 - - - - - - -
21/05:30pm 26.0 SSE 3 7 1012.0 - 0.0 - - - - - - -
21/05:00pm 26.1 SSE 3 9 1011.8 - 0.0 - - - - - - -
21/04:30pm 27.0 SSE 3 6 1011.6 - 0.0 - - - - - - -
21/04:00pm 27.6 SSE 4 6 1011.4 - 0.0 - - - - - - -
21/03:30pm 28.4 SSE 3 6 1011.3 - 0.0 - - - - - - -
21/03:00pm 29.1 SSE 3 5 1011.3 - 0.0 - - - - - - -
21/02:30pm 29.0 SSE 3 5 1011.4 - 0.0 - - - - - - -
21/02:00pm 30.3 SSE 3 6 1011.5 - 0.0 - - - - - - -
21/01:30pm 30.2 SE 3 8 1011.9 - 0.0 - - - - - - -
21/01:00pm 29.9 SE 3 7 1012.3 - 0.0 - - - - - - -
21/12:30pm 30.1 SE 2 7 1012.6 - 0.0 - - - - - - -
21/12:00pm 30.4 SE 3 7 1013.1 - 0.0 - - - - - - -
21/11:30am 30.4 SE 4 12 1013.4 - 0.0 - - - - - - -
21/11:00am 29.5 SE 4 10 1013.6 - 0.0 - - - - - - -
21/10:30am 29.4 SE 4 11 1013.7 - 0.0 - - - - - - -
21/10:00am 28.5 SE 4 10 1013.9 - 0.0 - - - - - - -
21/09:30am 27.4 SE 4 11 1014.0 - 0.0 - - - - - - -
21/09:00am 27.2 SE 4 9 1013.7 - 0.0 - - - - - - -
21/08:30am 26.2 SE 3 8 1013.4 - 0.0 - - - - - - -
21/08:00am 25.3 SE 4 11 1013.2 - 0.0 - - - - - - -
21/07:30am 24.5 SE 4 11 1012.9 - 0.0 - - - - - - -
21/07:00am 24.3 SE 5 11 1012.6 - 0.0 - - - - - - -
21/06:30am 23.7 SE 3 9 1012.3 - 0.0 - - - - - - -
21/06:00am 23.8 ESE 6 12 1012.0 - 0.0 - - - - - - -
21/05:30am 24.0 SE 4 12 1011.5 - 0.0 - - - - - - -
21/05:00am 24.2 SSE 3 9 1011.2 - 0.0 - - - - - - -
21/04:30am 24.3 SSE 3 7 1011.3 - 0.0 - - - - - - -
21/04:00am 24.3 SE 3 7 1011.2 - 0.0 - - - - - - -
21/03:30am 24.5 SE 3 7 1011.3 - 0.0 - - - - - - -
21/03:00am 24.6 SE 3 6 1011.3 - 0.0 - - - - - - -
21/02:30am 24.6 SE 3 8 1011.5 - 0.0 - - - - - - -
21/02:00am 24.6 SE 3 7 1011.7 - 0.0 - - - - - - -
21/01:30am 24.6 SE 4 8 1012.0 - 0.0 - - - - - - -
21/01:00am 24.5 SE 3 6 1012.1 - 0.0 - - - - - - -
21/12:30am 24.7 SE 4 9 1012.4 - 0.0 - - - - - - -
21/12:00am 24.9 SE 6 11 1012.6 - 0.0 - - - - - - -
 
Date/Time
EST
Temp
°C
Wind Pressure Rain since
9am
mm
Weather Cloud Vis
km
Sea
Height
m
Swell
Dir  Spd
kts
Gust
kts
hPa Trend Height
m
Period
s
Dir
20/11:30pm 25.0 SE 4 11 1012.9 - 0.0 - - - - - - -
20/11:00pm 25.1 SE 4 11 1013.0 - 0.0 - - - - - - -
20/10:30pm 25.1 SSE 3 7 1013.0 - 0.0 - - - - - - -
20/10:00pm 25.3 SSE 4 11 1013.1 - 0.0 - - - - - - -
20/09:30pm 25.2 SE 3 7 1012.9 - 0.0 - - - - - - -
20/09:00pm 25.2 SE 4 8 1012.7 - 0.0 - - - - - - -
20/08:30pm 25.6 SE 3 9 1012.6 - 0.0 - - - - - - -
20/08:00pm 25.3 SE 5 13 1012.4 - 0.0 - - - - - - -
20/07:30pm 25.0 SE 5 13 1012.0 - 0.0 - - - - - - -
20/07:00pm 25.0 SE 4 9 1011.7 - 0.0 - - - - - - -
20/06:30pm 25.1 SE 5 11 1011.5 - 0.0 - - - - - - -
20/06:00pm 25.9 SE 6 12 1011.3 - 0.0 - - - - - - -

Other Formats:

Comma delimited format used in spreadsheet applications
http://www.bom.gov.au/fwo/IDQ60701/IDQ60701.94182.axf

JavaScript Object Notation format (JSON) in row-major order
http://www.bom.gov.au/fwo/IDQ60701/IDQ60701.94182.json